sensor_id;sensor_type;location;lat;lon;timestamp;pressure;altitude;pressure_sealevel;temperature;humidity
48800;BME280;34611;47.964;7.982;2023-04-04T00:02:33;97271.50;;;10.51;53.31
48800;BME280;34611;47.964;7.982;2023-04-04T00:09:35;97272.22;;;10.53;53.50
48800;BME280;34611;47.964;7.982;2023-04-04T00:16:35;97257.81;;;10.49;53.21
48800;BME280;34611;47.964;7.982;2023-04-04T00:23:36;97255.22;;;10.49;53.44
48800;BME280;34611;47.964;7.982;2023-04-04T00:30:36;97251.78;;;10.49;53.20
48800;BME280;34611;47.964;7.982;2023-04-04T00:37:37;97257.00;;;10.49;53.23
48800;BME280;34611;47.964;7.982;2023-04-04T00:44:37;97232.88;;;10.47;52.89
48800;BME280;34611;47.964;7.982;2023-04-04T00:51:38;97242.34;;;10.48;52.56
48800;BME280;34611;47.964;7.982;2023-04-04T00:58:38;97235.38;;;10.48;52.38
48800;BME280;34611;47.964;7.982;2023-04-04T01:05:38;97227.56;;;10.48;52.46
48800;BME280;34611;47.964;7.982;2023-04-04T01:12:39;97237.25;;;10.46;52.22
48800;BME280;34611;47.964;7.982;2023-04-04T01:19:46;97231.09;;;10.47;51.98
48800;BME280;34611;47.964;7.982;2023-04-04T01:26:51;97225.19;;;10.45;51.77
48800;BME280;34611;47.964;7.982;2023-04-04T01:34:01;97226.06;;;10.46;51.74
48800;BME280;34611;47.964;7.982;2023-04-04T01:41:06;97216.69;;;10.43;51.88
48800;BME280;34611;47.964;7.982;2023-04-04T01:48:08;97216.69;;;10.43;51.97
48800;BME280;34611;47.964;7.982;2023-04-04T01:55:10;97220.16;;;10.44;51.78
48800;BME280;34611;47.964;7.982;2023-04-04T02:02:11;97205.59;;;10.41;52.09
48800;BME280;34611;47.964;7.982;2023-04-04T02:09:11;97208.19;;;10.41;51.74
48800;BME280;34611;47.964;7.982;2023-04-04T02:16:11;97207.38;;;10.41;51.85
48800;BME280;34611;47.964;7.982;2023-04-04T02:23:13;97205.59;;;10.41;51.52
48800;BME280;34611;47.964;7.982;2023-04-04T02:30:13;97206.56;;;10.40;51.55
48800;BME280;34611;47.964;7.982;2023-04-04T02:37:14;97203.25;;;10.38;51.50
48800;BME280;34611;47.964;7.982;2023-04-04T02:44:16;97204.06;;;10.39;51.67
48800;BME280;34611;47.964;7.982;2023-04-04T02:51:17;97195.66;;;10.35;50.94
48800;BME280;34611;47.964;7.982;2023-04-04T02:58:17;97191.31;;;10.36;50.91
48800;BME280;34611;47.964;7.982;2023-04-04T03:05:17;97193.78;;;10.37;51.14
48800;BME280;34611;47.964;7.982;2023-04-04T03:12:21;97192.13;;;10.36;50.90
48800;BME280;34611;47.964;7.982;2023-04-04T03:19:23;97188.84;;;10.34;50.50
48800;BME280;34611;47.964;7.982;2023-04-04T03:26:25;97193.06;;;10.35;50.77
48800;BME280;34611;47.964;7.982;2023-04-04T03:33:28;97194.03;;;10.34;51.02
48800;BME280;34611;47.964;7.982;2023-04-04T03:40:28;97190.72;;;10.32;50.80
48800;BME280;34611;47.964;7.982;2023-04-04T03:47:28;97192.38;;;10.33;50.83
48800;BME280;34611;47.964;7.982;2023-04-04T03:54:30;97200.31;;;10.31;51.00
48800;BME280;34611;47.964;7.982;2023-04-04T04:01:30;97200.41;;;10.30;50.10
48800;BME280;34611;47.964;7.982;2023-04-04T04:08:31;97197.81;;;10.30;50.04
48800;BME280;34611;47.964;7.982;2023-04-04T04:15:31;97208.28;;;10.28;50.01
48800;BME280;34611;47.964;7.982;2023-04-04T04:22:33;97202.38;;;10.26;49.70
48800;BME280;34611;47.964;7.982;2023-04-04T04:29:34;97210.28;;;10.25;49.34
48800;BME280;34611;47.964;7.982;2023-04-04T04:36:36;97209.47;;;10.24;49.46
48800;BME280;34611;47.964;7.982;2023-04-04T04:44:06;97214.66;;;10.24;49.91
48800;BME280;34611;47.964;7.982;2023-04-04T04:51:06;97224.22;;;10.24;49.67
48800;BME280;34611;47.964;7.982;2023-04-04T04:58:14;97228.59;;;10.23;49.84
48800;BME280;34611;47.964;7.982;2023-04-04T05:05:20;97220.09;;;10.21;49.85
48800;BME280;34611;47.964;7.982;2023-04-04T05:12:20;97221.38;;;10.16;49.11
48800;BME280;34611;47.964;7.982;2023-04-04T05:19:23;97235.34;;;10.15;48.96
48800;BME280;34611;47.964;7.982;2023-04-04T05:26:28;97232.03;;;10.12;48.89
48800;BME280;34611;47.964;7.982;2023-04-04T05:33:29;97232.03;;;10.12;48.99
48800;BME280;34611;47.964;7.982;2023-04-04T05:40:52;97242.41;;;10.12;49.27
48800;BME280;34611;47.964;7.982;2023-04-04T05:47:52;97247.63;;;10.12;49.26
48800;BME280;34611;47.964;7.982;2023-04-04T05:54:55;97251.84;;;10.13;49.25
48800;BME280;34611;47.964;7.982;2023-04-04T06:02:00;97265.81;;;10.12;49.21
48800;BME280;34611;47.964;7.982;2023-04-04T06:09:02;97259.66;;;10.13;49.29
48800;BME280;34611;47.964;7.982;2023-04-04T06:16:02;97261.53;;;10.11;49.42
48800;BME280;34611;47.964;7.982;2023-04-04T06:23:03;97263.19;;;10.12;49.24
48800;BME280;34611;47.964;7.982;2023-04-04T06:30:05;97266.72;;;10.11;49.14
48800;BME280;34611;47.964;7.982;2023-04-04T06:37:07;97254.69;;;10.10;49.09
48800;BME280;34611;47.964;7.982;2023-04-04T06:44:25;97257.16;;;10.12;49.19
48800;BME280;34611;47.964;7.982;2023-04-04T06:51:25;97242.41;;;10.12;49.18
48800;BME280;34611;47.964;7.982;2023-04-04T06:58:26;97238.97;;;10.12;49.26
48800;BME280;34611;47.964;7.982;2023-04-04T07:05:27;97235.56;;;10.11;48.85
48800;BME280;34611;47.964;7.982;2023-04-04T07:12:28;97227.53;;;10.15;48.97
48800;BME280;34611;47.964;7.982;2023-04-04T07:19:29;97222.56;;;10.11;49.09
48800;BME280;34611;47.964;7.982;2023-04-04T07:26:29;97229.44;;;10.12;48.62
48800;BME280;34611;47.964;7.982;2023-04-04T07:33:29;97225.16;;;10.11;48.72
48800;BME280;34611;47.964;7.982;2023-04-04T07:40:30;97218.34;;;10.10;47.89
48800;BME280;34611;47.964;7.982;2023-04-04T07:47:30;97225.41;;;10.08;47.82
48800;BME280;34611;47.964;7.982;2023-04-04T07:54:31;97217.47;;;10.10;47.78
48800;BME280;34611;47.964;7.982;2023-04-04T08:01:31;97229.66;;;10.09;47.99
48800;BME280;34611;47.964;7.982;2023-04-04T08:08:32;97223.75;;;10.07;47.53
48800;BME280;34611;47.964;7.982;2023-04-04T08:15:32;97223.75;;;10.07;47.34
48800;BME280;34611;47.964;7.982;2023-04-04T08:22:32;97214.41;;;10.05;47.28
48800;BME280;34611;47.964;7.982;2023-04-04T08:29:32;97222.09;;;10.06;46.87
48800;BME280;34611;47.964;7.982;2023-04-04T08:36:33;97220.31;;;10.07;47.13
48800;BME280;34611;47.964;7.982;2023-04-04T08:43:35;97223.75;;;10.07;47.49
48800;BME280;34611;47.964;7.982;2023-04-04T08:50:38;97229.75;;;10.08;46.91
48800;BME280;34611;47.964;7.982;2023-04-04T08:57:38;97228.00;;;10.08;46.95
48800;BME280;34611;47.964;7.982;2023-04-04T09:04:39;97220.22;;;10.08;46.90
48800;BME280;34611;47.964;7.982;2023-04-04T09:11:40;97219.16;;;10.11;47.35
48800;BME280;34611;47.964;7.982;2023-04-04T09:18:40;97217.38;;;10.11;47.24
48800;BME280;34611;47.964;7.982;2023-04-04T09:25:43;97212.19;;;10.11;47.30
48800;BME280;34611;47.964;7.982;2023-04-04T09:32:43;97212.53;;;10.07;46.78
48800;BME280;34611;47.964;7.982;2023-04-04T09:39:44;97218.53;;;10.07;46.65
48800;BME280;34611;47.964;7.982;2023-04-04T09:46:44;97214.06;;;10.09;47.47
48800;BME280;34611;47.964;7.982;2023-04-04T09:53:48;97221.28;;;10.17;48.32
48800;BME280;34611;47.964;7.982;2023-04-04T10:00:48;97219.16;;;10.11;47.35
48800;BME280;34611;47.964;7.982;2023-04-04T10:07:51;97227.88;;;10.10;46.93
48800;BME280;34611;47.964;7.982;2023-04-04T10:14:55;97220.22;;;10.08;46.67
48800;BME280;34611;47.964;7.982;2023-04-04T10:21:55;97220.78;;;10.12;47.18
48800;BME280;34611;47.964;7.982;2023-04-04T10:28:56;97220.78;;;10.12;46.89
48800;BME280;34611;47.964;7.982;2023-04-04T10:43:38;97211.34;;;10.11;46.82
48800;BME280;34611;47.964;7.982;2023-04-04T10:50:40;97206.16;;;10.11;47.20
48800;BME280;34611;47.964;7.982;2023-04-04T10:57:41;97201.78;;;10.11;46.18
48800;BME280;34611;47.964;7.982;2023-04-04T11:04:43;97196.94;;;10.07;45.46
48800;BME280;34611;47.964;7.982;2023-04-04T11:12:05;97176.16;;;10.07;45.71
48800;BME280;34611;47.964;7.982;2023-04-04T11:19:06;97175.81;;;10.11;46.58
48800;BME280;34611;47.964;7.982;2023-04-04T11:26:08;97178.66;;;10.08;46.14
48800;BME280;34611;47.964;7.982;2023-04-04T11:33:10;97164.97;;;10.06;45.48
48800;BME280;34611;47.964;7.982;2023-04-04T11:40:10;97157.88;;;10.08;46.10
48800;BME280;34611;47.964;7.982;2023-04-04T11:47:12;97157.63;;;10.11;46.13
48800;BME280;34611;47.964;7.982;2023-04-04T11:54:13;97155.28;;;10.08;45.65
48800;BME280;34611;47.964;7.982;2023-04-04T12:01:14;97151.84;;;10.08;45.76
48800;BME280;34611;47.964;7.982;2023-04-04T12:08:15;97149.13;;;10.09;45.92
48800;BME280;34611;47.964;7.982;2023-04-04T12:15:17;97141.44;;;10.08;45.35
48800;BME280;34611;47.964;7.982;2023-04-04T12:22:17;97149.22;;;10.08;45.53
48800;BME280;34611;47.964;7.982;2023-04-04T12:29:19;97151.00;;;10.07;45.21
48800;BME280;34611;47.964;7.982;2023-04-04T12:36:23;97148.53;;;10.06;45.13
48800;BME280;34611;47.964;7.982;2023-04-04T12:43:27;97139.09;;;10.05;44.48
48800;BME280;34611;47.964;7.982;2023-04-04T12:50:30;97141.44;;;10.08;44.78
48800;BME280;34611;47.964;7.982;2023-04-04T12:57:31;97124.34;;;10.05;44.24
48800;BME280;34611;47.964;7.982;2023-04-04T13:04:33;97119.13;;;10.05;44.64
48800;BME280;34611;47.964;7.982;2023-04-04T13:18:52;97131.31;;;10.05;44.37
48800;BME280;34611;47.964;7.982;2023-04-04T13:25:53;97116.53;;;10.05;44.34
48800;BME280;34611;47.964;7.982;2023-04-04T13:32:53;97105.44;;;10.03;44.23
48800;BME280;34611;47.964;7.982;2023-04-04T13:39:53;97101.91;;;10.04;44.90
48800;BME280;34611;47.964;7.982;2023-04-04T13:46:53;97107.09;;;10.04;44.27
48800;BME280;34611;47.964;7.982;2023-04-04T13:53:54;97102.63;;;10.06;45.16
48800;BME280;34611;47.964;7.982;2023-04-04T14:00:54;97101.91;;;10.04;44.47
48800;BME280;34611;47.964;7.982;2023-04-04T14:07:56;97097.53;;;10.05;44.40
48800;BME280;34611;47.964;7.982;2023-04-04T14:14:56;97095.75;;;10.05;44.70
48800;BME280;34611;47.964;7.982;2023-04-04T14:21:56;97088.06;;;10.04;44.22
48800;BME280;34611;47.964;7.982;2023-04-04T14:28:57;97078.53;;;10.04;44.97
48800;BME280;34611;47.964;7.982;2023-04-04T14:35:57;97083.59;;;10.06;44.54
48800;BME280;34611;47.964;7.982;2023-04-04T14:42:57;97085.47;;;10.04;44.33
48800;BME280;34611;47.964;7.982;2023-04-04T14:49:57;97085.47;;;10.04;44.38
48800;BME280;34611;47.964;7.982;2023-04-04T14:56:59;97082.06;;;10.03;44.11
48800;BME280;34611;47.964;7.982;2023-04-04T15:04:01;97086.34;;;10.04;44.15
48800;BME280;34611;47.964;7.982;2023-04-04T15:11:01;97083.72;;;10.04;44.23
48800;BME280;34611;47.964;7.982;2023-04-04T15:18:01;97083.72;;;10.04;44.73
48800;BME280;34611;47.964;7.982;2023-04-04T15:25:02;97087.16;;;10.05;44.40
48800;BME280;34611;47.964;7.982;2023-04-04T15:32:02;97081.97;;;10.05;44.34
48800;BME280;34611;47.964;7.982;2023-04-04T15:39:02;97082.06;;;10.03;43.88
48800;BME280;34611;47.964;7.982;2023-04-04T15:46:03;97089.03;;;10.03;44.38
48800;BME280;34611;47.964;7.982;2023-04-04T15:53:03;97092.47;;;10.03;44.30
48800;BME280;34611;47.964;7.982;2023-04-04T16:00:04;97089.84;;;10.03;44.19
48800;BME280;34611;47.964;7.982;2023-04-04T16:07:07;97085.38;;;10.05;44.57
48800;BME280;34611;47.964;7.982;2023-04-04T16:14:08;97089.16;;;10.01;44.35
48800;BME280;34611;47.964;7.982;2023-04-04T16:21:09;97089.25;;;10.00;43.51
48800;BME280;34611;47.964;7.982;2023-04-04T16:28:10;97082.31;;;10.00;43.95
48800;BME280;34611;47.964;7.982;2023-04-04T16:35:10;97080.44;;;10.02;43.95
48800;BME280;34611;47.964;7.982;2023-04-04T16:42:11;97083.97;;;10.01;44.38
48800;BME280;34611;47.964;7.982;2023-04-04T16:49:11;97079.59;;;10.02;44.14
48800;BME280;34611;47.964;7.982;2023-04-04T16:56:11;97081.34;;;10.01;44.21
48800;BME280;34611;47.964;7.982;2023-04-04T17:03:11;97071.94;;;10.00;44.51
48800;BME280;34611;47.964;7.982;2023-04-04T17:10:12;97082.31;;;10.00;44.09
48800;BME280;34611;47.964;7.982;2023-04-04T17:17:12;97079.00;;;9.98;43.86
48800;BME280;34611;47.964;7.982;2023-04-04T17:24:12;97077.34;;;9.97;43.91
48800;BME280;34611;47.964;7.982;2023-04-04T17:31:14;97079.00;;;9.98;44.07
48800;BME280;34611;47.964;7.982;2023-04-04T17:38:14;97086.91;;;9.97;44.11
48800;BME280;34611;47.964;7.982;2023-04-04T17:45:14;97087.75;;;9.97;44.18
48800;BME280;34611;47.964;7.982;2023-04-04T17:52:15;97100.72;;;9.97;44.11
48800;BME280;34611;47.964;7.982;2023-04-04T17:59:18;97090.44;;;9.96;44.09
48800;BME280;34611;47.964;7.982;2023-04-04T18:06:18;97095.63;;;9.96;44.10
48800;BME280;34611;47.964;7.982;2023-04-04T18:13:18;97101.69;;;9.96;44.31
48800;BME280;34611;47.964;7.982;2023-04-04T18:20:19;97112.28;;;9.93;44.30
48800;BME280;34611;47.964;7.982;2023-04-04T18:27:19;97119.16;;;9.94;44.27
48800;BME280;34611;47.964;7.982;2023-04-04T18:34:19;97124.19;;;9.96;44.85
48800;BME280;34611;47.964;7.982;2023-04-04T18:41:20;97122.47;;;9.96;44.85
48800;BME280;34611;47.964;7.982;2023-04-04T18:48:20;97132.97;;;9.95;44.59
48800;BME280;34611;47.964;7.982;2023-04-04T18:55:23;97139.47;;;10.00;44.73
48800;BME280;34611;47.964;7.982;2023-04-04T19:02:24;97151.94;;;9.95;44.69
48800;BME280;34611;47.964;7.982;2023-04-04T19:09:24;97160.56;;;9.96;45.45
48800;BME280;34611;47.964;7.982;2023-04-04T19:16:26;97174.41;;;9.96;45.14
48800;BME280;34611;47.964;7.982;2023-04-04T19:23:27;97170.13;;;9.95;45.39
48800;BME280;34611;47.964;7.982;2023-04-04T19:37:33;97182.41;;;9.93;45.07
48800;BME280;34611;47.964;7.982;2023-04-04T19:44:34;97186.66;;;9.94;45.48
48800;BME280;34611;47.964;7.982;2023-04-04T19:51:35;97185.97;;;9.92;45.21
48800;BME280;34611;47.964;7.982;2023-04-04T19:58:37;97179.00;;;9.92;45.14
48800;BME280;34611;47.964;7.982;2023-04-04T20:12:37;97186.88;;;9.91;45.25
48800;BME280;34611;47.964;7.982;2023-04-04T20:19:38;97189.38;;;9.92;45.28
48800;BME280;34611;47.964;7.982;2023-04-04T20:33:39;97194.56;;;9.92;45.15
48800;BME280;34611;47.964;7.982;2023-04-04T20:40:39;97185.97;;;9.92;45.51
48800;BME280;34611;47.964;7.982;2023-04-04T20:54:40;97199.75;;;9.92;45.57
48800;BME280;34611;47.964;7.982;2023-04-04T21:01:40;97199.88;;;9.91;45.65
48800;BME280;34611;47.964;7.982;2023-04-04T21:08:47;97205.88;;;9.91;45.53
48800;BME280;34611;47.964;7.982;2023-04-04T21:15:48;97198.09;;;9.91;45.67
48800;BME280;34611;47.964;7.982;2023-04-04T21:22:49;97195.63;;;9.90;45.41
48800;BME280;34611;47.964;7.982;2023-04-04T21:29:50;97196.44;;;9.90;45.76
48800;BME280;34611;47.964;7.982;2023-04-04T21:36:51;97200.81;;;9.90;45.57
48800;BME280;34611;47.964;7.982;2023-04-04T21:43:55;97204.25;;;9.90;45.76
48800;BME280;34611;47.964;7.982;2023-04-04T21:50:55;97202.56;;;9.89;45.81
48800;BME280;34611;47.964;7.982;2023-04-04T21:57:56;97203.53;;;9.88;45.71
48800;BME280;34611;47.964;7.982;2023-04-04T22:04:56;97209.53;;;9.89;45.64
48800;BME280;34611;47.964;7.982;2023-04-04T22:11:58;97207.91;;;9.88;45.53
48800;BME280;34611;47.964;7.982;2023-04-04T22:19:01;97206.25;;;9.87;45.94
48800;BME280;34611;47.964;7.982;2023-04-04T22:26:03;97206.13;;;9.88;45.45
48800;BME280;34611;47.964;7.982;2023-04-04T22:33:04;97202.00;;;9.86;45.38
48800;BME280;34611;47.964;7.982;2023-04-04T22:40:05;97198.56;;;9.85;45.69
48800;BME280;34611;47.964;7.982;2023-04-04T22:47:09;97193.38;;;9.85;45.45
48800;BME280;34611;47.964;7.982;2023-04-04T22:54:11;97190.91;;;9.84;45.58
48800;BME280;34611;47.964;7.982;2023-04-04T23:01:13;97189.94;;;9.85;45.41
48800;BME280;34611;47.964;7.982;2023-04-04T23:08:13;97181.34;;;9.84;45.36
48800;BME280;34611;47.964;7.982;2023-04-04T23:15:13;97183.13;;;9.84;45.38
48800;BME280;34611;47.964;7.982;2023-04-04T23:22:14;97176.16;;;9.84;45.34
48800;BME280;34611;47.964;7.982;2023-04-04T23:29:14;97180.50;;;9.84;45.57
48800;BME280;34611;47.964;7.982;2023-04-04T23:36:14;97175.44;;;9.82;45.25
48800;BME280;34611;47.964;7.982;2023-04-04T23:43:15;97172.84;;;9.82;45.38
48800;BME280;34611;47.964;7.982;2023-04-04T23:50:15;97168.47;;;9.83;45.42
48800;BME280;34611;47.964;7.982;2023-04-04T23:57:16;97161.63;;;9.82;44.92
